Time;durP1;ratioP1;P1;durP2;ratioP2;P2;SDS_P1;SDS_P2;PMS_P1;PMS_P2;Temp;Humidity;BMP_temperature;BMP_pressure;BME280_temperature;BME280_humidity;BME280_pressure;Samples;Min_cycle;Max_cycle;Signal;HPM_P1;HPM_P2
2021/06/04 00:00:30;;;;;;;5.33;4.83;;;;;;;17.30;68.42;95535.09;4994293;28;20431;-79
2021/06/04 00:02:58;;;;;;;4.50;4.10;;;;;;;17.27;68.82;95529.28;4993971;28;20440;-79
2021/06/04 00:05:31;;;;;;;5.50;5.10;;;;;;;17.23;68.27;95528.75;4994357;28;20480;-79
2021/06/04 00:07:58;;;;;;;4.37;4.00;;;;;;;17.20;68.12;95526.41;4994148;28;20452;-79
2021/06/04 00:10:28;;;;;;;13.97;5.00;;;;;;;17.17;68.56;95517.94;4993990;28;20490;-79
2021/06/04 00:12:55;;;;;;;6.53;4.40;;;;;;;17.15;68.81;95523.41;4993934;28;20451;-79
2021/06/04 00:15:25;;;;;;;6.80;5.07;;;;;;;17.09;69.07;95521.38;4994106;28;20443;-79
2021/06/04 00:17:54;;;;;;;4.67;4.27;;;;;;;17.06;68.93;95516.38;4993878;28;20798;-79
2021/06/04 00:20:24;;;;;;;6.07;4.67;;;;;;;17.05;69.08;95519.97;4994429;28;20429;-79
2021/06/04 00:22:51;;;;;;;8.13;5.30;;;;;;;17.04;69.29;95516.50;4994454;28;20467;-79
2021/06/04 00:25:18;;;;;;;6.43;4.43;;;;;;;17.01;69.50;95521.28;4997710;28;20851;-79
2021/06/04 00:27:44;;;;;;;9.70;4.40;;;;;;;16.87;70.49;95520.03;4997673;28;20430;-79
2021/06/04 00:30:12;;;;;;;6.10;4.60;;;;;;;16.87;69.73;95520.03;4997683;28;20467;-79
2021/06/04 00:32:39;;;;;;;5.23;4.83;;;;;;;16.87;69.74;95519.19;4997897;28;20434;-79
2021/06/04 00:35:09;;;;;;;5.50;4.50;;;;;;;16.88;69.67;95512.91;4997577;28;20436;-79
2021/06/04 00:37:36;;;;;;;5.10;4.60;;;;;;;16.88;69.59;95518.22;4979666;28;20914;-79
2021/06/04 00:40:05;;;;;;;7.50;4.63;;;;;;;16.88;69.96;95512.91;4997642;28;20458;-79
2021/06/04 00:42:35;;;;;;;5.50;5.00;;;;;;;16.82;69.53;95513.53;4997262;28;20451;-79
2021/06/04 00:45:03;;;;;;;8.33;5.20;;;;;;;16.85;69.46;95518.53;4997355;28;20954;-79
2021/06/04 00:47:30;;;;;;;5.47;5.07;;;;;;;16.82;69.98;95513.53;4996963;28;20446;-79
2021/06/04 00:49:56;;;;;;;6.87;5.77;;;;;;;16.83;69.96;95518.69;4996887;28;20932;-79
2021/06/04 00:52:28;;;;;;;11.73;5.10;;;;;;;16.86;69.68;95520.19;4996777;28;20451;-79
2021/06/04 00:54:57;;;;;;;11.40;5.30;;;;;;;16.83;69.46;95517.84;4996790;28;20448;-79
2021/06/04 00:57:25;;;;;;;6.20;5.20;;;;;;;16.81;69.27;95518.00;4997230;28;20808;-79
2021/06/04 01:00:00;;;;;;;5.20;4.70;;;;;;;16.81;69.43;95518.00;4997156;28;20846;-79
2021/06/04 01:02:28;;;;;;;5.00;4.27;;;;;;;16.85;70.00;95511.41;4962829;28;20479;-79
2021/06/04 01:04:55;;;;;;;5.43;4.93;;;;;;;16.81;69.64;95518.00;4996835;28;20476;-79
2021/06/04 01:14:19;;;;;;;5.73;5.17;;;;;;;16.78;70.09;95517.47;4996676;28;20431;-79
2021/06/04 01:16:58;;;;;;;6.03;5.40;;;;;;;16.79;70.08;95522.63;4996781;28;20458;-79
2021/06/04 01:19:39;;;;;;;7.13;5.53;;;;;;;16.74;70.80;95522.22;4996957;28;20434;-79
2021/06/04 01:22:09;;;;;;;7.13;4.77;;;;;;;16.70;70.51;95527.00;4996997;28;20447;-79
2021/06/04 01:24:54;;;;;;;6.17;5.63;;;;;;;16.72;70.90;95526.84;4996477;28;21055;-79
2021/06/04 01:27:25;;;;;;;6.70;5.73;;;;;;;16.71;71.00;95525.19;4946941;28;20474;-80
2021/06/04 01:29:59;;;;;;;5.70;4.50;;;;;;;16.71;70.90;95519.88;4996298;28;20935;-78
2021/06/04 01:32:30;;;;;;;9.10;5.03;;;;;;;16.70;71.23;95521.69;4943483;28;20486;-80
2021/06/04 01:35:07;;;;;;;7.40;5.63;;;;;;;16.68;70.74;95528.13;4958470;28;20456;-79
2021/06/04 01:37:35;;;;;;;10.20;5.20;;;;;;;16.67;70.98;95524.66;4976821;28;20448;-79
2021/06/04 01:40:06;;;;;;;7.07;5.73;;;;;;;16.63;71.05;95525.91;4977087;28;20429;-79
2021/06/04 01:42:38;;;;;;;6.60;5.77;;;;;;;16.57;71.16;95523.88;4976577;28;20956;-79
2021/06/04 01:45:10;;;;;;;10.30;5.30;;;;;;;16.56;71.39;95524.84;4976991;28;20508;-79
2021/06/04 01:47:40;;;;;;;8.73;5.10;;;;;;;16.53;71.56;95530.47;4976587;28;20471;-79
2021/06/04 01:50:12;;;;;;;5.80;5.27;;;;;;;16.52;71.87;95523.50;4976633;28;20466;-79
2021/06/04 01:52:40;;;;;;;5.53;5.13;;;;;;;16.54;72.07;95531.28;4976297;28;20437;-79
2021/06/04 01:55:10;;;;;;;6.37;5.50;;;;;;;16.51;72.26;95526.31;4976499;28;20434;-79
2021/06/04 02:04:50;;;;;;;8.53;5.90;;;;;;;16.30;72.19;95529.22;4976074;28;20773;-79
2021/06/04 02:07:22;;;;;;;7.77;6.40;;;;;;;16.29;72.15;95528.38;4976392;28;20446;-79
2021/06/04 02:09:49;;;;;;;5.97;5.47;;;;;;;16.28;72.49;95541.78;4975956;28;20819;-79
2021/06/04 02:12:16;;;;;;;6.70;6.13;;;;;;;16.27;72.06;95530.34;4942366;28;21150;-79
2021/06/04 02:14:47;;;;;;;8.17;5.17;;;;;;;16.28;72.27;95536.47;4976140;28;20499;-79
2021/06/04 02:17:23;;;;;;;9.80;6.27;;;;;;;16.30;72.27;95539.81;4976175;28;20924;-79
2021/06/04 02:20:03;;;;;;;7.10;6.50;;;;;;;16.22;72.53;95532.63;4976170;28;20443;-79
2021/06/04 02:32:41;;;;;;;5.97;5.47;;;;;;;16.25;72.19;95550.03;4994344;28;20953;-79
2021/06/04 02:35:15;;;;;;;6.13;5.53;;;;;;;16.23;72.54;95552.00;4962084;28;20446;-79
2021/06/04 02:37:45;;;;;;;6.40;5.60;;;;;;;16.24;71.71;95551.00;4995126;28;20430;-80
2021/06/04 02:40:18;;;;;;;5.93;5.33;;;;;;;16.27;72.32;95554.19;4995276;28;20424;-79
2021/06/04 02:42:50;;;;;;;6.83;6.27;;;;;;;16.22;71.74;95547.69;4994860;28;20443;-79
2021/06/04 02:45:22;;;;;;;8.07;5.90;;;;;;;16.25;72.36;95552.69;4994850;28;20496;-79
2021/06/04 02:47:52;;;;;;;6.33;5.50;;;;;;;16.25;71.83;95555.31;4995097;28;20446;-79
2021/06/04 02:50:26;;;;;;;7.50;5.60;;;;;;;16.27;72.28;95556.84;4961646;28;20468;-79
2021/06/04 02:56:22;;;;;;;7.30;5.87;;;;;;;16.32;72.40;95554.56;4994821;28;20419;-79
2021/06/04 02:58:52;;;;;;;9.70;5.67;;;;;;;16.29;72.76;95556.69;4994719;28;20438;-79
2021/06/04 03:01:20;;;;;;;8.70;6.57;;;;;;;16.24;72.34;95557.13;4994620;28;20838;-79
2021/06/04 03:03:51;;;;;;;6.90;6.20;;;;;;;16.29;72.92;95559.34;4994881;28;20475;-79
2021/06/04 03:06:22;;;;;;;6.37;5.77;;;;;;;16.31;72.26;95563.50;4994725;28;20514;-79
2021/06/04 03:08:50;;;;;;;6.80;6.20;;;;;;;16.25;72.68;95565.91;4994935;28;20517;-79
2021/06/04 03:11:18;;;;;;;7.77;5.17;;;;;;;16.28;73.27;95570.91;4994798;28;20436;-79
2021/06/04 03:13:45;;;;;;;6.73;6.20;;;;;;;16.32;73.38;95569.63;4945046;28;20880;-79
2021/06/04 03:16:15;;;;;;;11.20;6.93;;;;;;;16.33;74.60;95568.66;4994712;28;20475;-79
2021/06/04 03:25:31;;;;;;;7.00;6.07;;;;;;;16.38;75.86;95579.63;4952831;29;20457;-79
2021/06/04 03:27:58;;;;;;;9.90;6.33;;;;;;;16.42;75.98;95575.69;4953724;29;20494;-79
2021/06/04 03:30:28;;;;;;;9.50;7.90;;;;;;;16.42;76.53;95581.00;4953640;29;20453;-79
2021/06/04 03:32:55;;;;;;;7.50;6.80;;;;;;;16.39;75.80;95576.00;4954578;29;20980;-79
2021/06/04 03:48:51;;;;;;;10.17;7.07;;;;;;;16.39;72.06;95579.47;4993037;28;20478;-79
2021/06/04 03:51:22;;;;;;;7.30;6.00;;;;;;;16.39;71.39;95583.94;4960589;28;20448;-79
2021/06/04 03:53:49;;;;;;;6.67;6.03;;;;;;;16.35;71.58;95575.47;4960131;28;20450;-78
2021/06/04 03:56:17;;;;;;;6.47;5.87;;;;;;;16.35;71.62;95579.94;4994130;28;20432;-80
2021/06/04 04:02:21;;;;;;;8.83;6.10;;;;;;;16.33;71.93;95587.19;5017851;28;20401;-79
2021/06/04 04:04:50;;;;;;;8.37;5.70;;;;;;;16.29;71.74;95586.66;5017503;28;20484;-79
2021/06/04 04:07:16;;;;;;;7.47;6.10;;;;;;;16.27;72.09;95590.44;5017690;28;20439;-79
2021/06/04 04:09:43;;;;;;;5.87;5.43;;;;;;;16.28;71.97;95594.75;4999276;28;20498;-79
2021/06/04 04:12:10;;;;;;;6.63;6.03;;;;;;;16.26;71.97;95589.59;5017582;28;20494;-79
2021/06/04 04:14:37;;;;;;;15.13;6.50;;;;;;;16.28;72.27;95594.75;5017539;28;20452;-79
2021/06/04 04:17:04;;;;;;;6.60;5.90;;;;;;;16.23;71.71;95594.38;5017386;28;20450;-79
2021/06/04 04:19:31;;;;;;;6.37;5.53;;;;;;;16.23;70.95;95600.50;5017219;28;21084;-79
2021/06/04 04:21:59;;;;;;;12.00;6.40;;;;;;;16.27;70.74;95601.88;5017494;28;20453;-79
2021/06/04 04:24:29;;;;;;;7.47;6.10;;;;;;;16.30;70.86;95608.69;4983023;28;20809;-79
2021/06/04 04:26:57;;;;;;;9.30;6.23;;;;;;;16.34;70.71;95604.75;5017132;28;20512;-79
2021/06/04 04:29:24;;;;;;;7.83;6.40;;;;;;;16.41;71.24;95605.81;5017773;28;20446;-79
2021/06/04 04:31:53;;;;;;;6.57;5.97;;;;;;;16.47;70.96;95599.09;5017343;28;20504;-79
2021/06/04 04:34:21;;;;;;;6.20;5.70;;;;;;;16.54;71.58;95608.97;5016937;28;20473;-79
2021/06/04 04:36:51;;;;;;;7.57;5.57;;;;;;;16.52;70.81;95602.97;5017196;28;20441;-79
2021/06/04 04:39:21;;;;;;;9.87;6.10;;;;;;;16.61;70.78;95611.84;5018684;28;20541;-79
2021/06/04 04:41:49;;;;;;;6.33;5.83;;;;;;;16.60;70.68;95621.59;4982683;28;20488;-79
2021/06/04 04:44:16;;;;;;;7.77;6.30;;;;;;;16.55;73.09;95615.94;5016774;28;20792;-79
2021/06/04 04:46:43;;;;;;;13.17;7.50;;;;;;;16.43;76.26;95619.75;5016530;28;20882;-79
2021/06/04 04:49:10;;;;;;;9.13;8.23;;;;;;;16.43;78.73;95625.88;5016939;28;20452;-80
2021/06/04 04:51:39;;;;;;;11.20;8.20;;;;;;;16.30;80.88;95625.41;5017369;28;20844;-81
2021/06/04 04:54:07;;;;;;;16.03;7.63;;;;;;;16.25;81.89;95626.81;5017544;28;20526;-81
2021/06/04 04:56:36;;;;;;;15.73;8.80;;;;;;;15.79;84.90;95629.34;5017229;28;20796;-79
2021/06/04 04:59:03;;;;;;;10.83;9.73;;;;;;;15.84;84.37;95633.38;5017350;28;20439;-82
2021/06/04 05:01:30;;;;;;;10.97;8.13;;;;;;;15.81;84.65;95631.84;5016446;28;20476;-80
2021/06/04 05:03:57;;;;;;;10.93;7.63;;;;;;;15.75;84.95;95632.44;5016970;28;20462;-79
2021/06/04 05:06:23;;;;;;;8.63;7.83;;;;;;;15.89;84.45;95631.97;5016368;28;21016;-79
2021/06/04 05:08:50;;;;;;;9.27;8.07;;;;;;;15.68;84.60;95640.13;5016913;28;20445;-79
2021/06/04 05:11:17;;;;;;;8.57;7.67;;;;;;;15.64;84.60;95635.25;5015593;28;20452;-79
2021/06/04 05:13:45;;;;;;;9.63;8.73;;;;;;;15.74;83.72;95641.34;5016106;28;20498;-79
2021/06/04 05:16:12;;;;;;;10.57;7.40;;;;;;;15.84;84.00;95643.97;5015813;28;20443;-79
2021/06/04 05:18:39;;;;;;;14.70;9.40;;;;;;;15.96;84.07;95646.31;5016894;28;20805;-79
2021/06/04 05:21:08;;;;;;;10.30;9.30;;;;;;;16.01;83.05;95644.06;5015928;28;20842;-79
2021/06/04 05:23:35;;;;;;;15.67;9.47;;;;;;;16.13;82.86;95652.63;5016290;28;20427;-83
2021/06/04 05:26:02;;;;;;;9.50;7.97;;;;;;;16.24;81.57;95654.28;5015800;28;21008;-80
2021/06/04 05:28:30;;;;;;;9.23;8.33;;;;;;;16.27;81.61;95649.53;5016161;28;20443;-81
2021/06/04 05:31:02;;;;;;;10.53;7.73;;;;;;;16.34;81.04;95657.72;5016157;28;20598;-81
2021/06/04 05:33:32;;;;;;;8.00;7.30;;;;;;;16.06;80.83;95652.41;4981505;28;20523;-79
2021/06/04 05:36:00;;;;;;;10.80;7.70;;;;;;;15.92;80.74;95652.03;5015870;28;20438;-81
2021/06/04 05:38:27;;;;;;;17.70;9.23;;;;;;;15.89;82.26;95653.13;5016302;28;20431;-80
2021/06/04 05:40:55;;;;;;;13.93;7.93;;;;;;;16.30;85.93;95653.69;5016212;28;20432;-78
2021/06/04 05:43:25;;;;;;;9.57;8.70;;;;;;;16.44;82.12;95655.84;5015899;28;20530;-78
2021/06/04 05:45:52;;;;;;;14.17;8.80;;;;;;;16.57;81.32;95655.53;4982323;28;20989;-80
2021/06/04 05:48:21;;;;;;;9.10;8.20;;;;;;;16.64;81.01;95660.06;5016498;28;20439;-81
2021/06/04 05:50:50;;;;;;;15.13;9.27;;;;;;;16.58;81.85;95663.31;5016339;28;20434;-79
2021/06/04 05:53:23;;;;;;;8.90;7.57;;;;;;;16.64;82.12;95670.69;5015486;28;20435;-79
2021/06/04 05:55:50;;;;;;;13.90;9.03;;;;;;;16.75;82.31;95672.31;5015655;28;20436;-79
2021/06/04 05:58:19;;;;;;;14.30;8.03;;;;;;;16.81;82.47;95662.94;5015408;28;20492;-80
2021/06/04 06:00:49;;;;;;;9.50;8.50;;;;;;;16.81;81.76;95665.59;5016621;28;20459;-80
2021/06/04 06:33:39;;;;;;;9.67;8.20;;;;;;;17.33;76.74;95672.72;4997924;28;20435;-82
2021/06/04 06:36:07;;;;;;;16.23;8.90;;;;;;;17.38;77.77;95668.81;4997267;28;20450;-82
2021/06/04 06:38:35;;;;;;;9.00;7.50;;;;;;;17.69;75.09;95667.44;4996915;28;20441;-81
2021/06/04 06:41:04;;;;;;;12.93;8.70;;;;;;;17.74;74.21;95675.78;4994999;28;20983;-82
2021/06/04 06:43:34;;;;;;;8.13;7.23;;;;;;;17.48;73.86;95672.22;4995018;28;20820;-81
2021/06/04 06:46:01;;;;;;;8.50;7.80;;;;;;;17.42;73.60;95670.19;4995278;28;20989;-81
2021/06/04 06:48:28;;;;;;;9.10;7.47;;;;;;;17.73;73.50;95674.09;4995357;28;20441;-80
2021/06/04 06:50:56;;;;;;;10.77;7.60;;;;;;;18.23;70.89;95676.09;4996130;28;20448;-82
2021/06/04 06:53:25;;;;;;;7.50;6.70;;;;;;;18.32;68.96;95676.97;4961259;28;20739;-81
2021/06/04 06:55:54;;;;;;;8.00;6.80;;;;;;;18.91;69.84;95673.41;4995790;28;20812;-81
2021/06/04 06:58:22;;;;;;;15.60;8.20;;;;;;;19.28;65.99;95670.31;5012686;28;20495;-81
2021/06/04 07:00:50;;;;;;;10.27;7.30;;;;;;;19.29;64.08;95679.16;5010894;28;20456;-81
2021/06/04 07:03:23;;;;;;;7.20;6.60;;;;;;;19.45;64.56;95676.50;5013598;28;20489;-80
2021/06/04 07:05:49;;;;;;;11.10;7.37;;;;;;;19.49;64.25;95669.84;5014907;28;20481;-80
2021/06/04 07:08:17;;;;;;;14.83;7.53;;;;;;;19.85;63.83;95669.53;4979781;28;20454;-79
2021/06/04 07:10:44;;;;;;;14.43;8.27;;;;;;;19.99;61.56;95671.53;5014429;28;20446;-80
2021/06/04 07:13:24;;;;;;;10.87;6.70;;;;;;;20.32;63.34;95665.13;5014226;28;20444;-80
2021/06/04 07:15:51;;;;;;;13.30;8.27;;;;;;;20.60;60.01;95670.09;5014067;28;20451;-80
2021/06/04 07:18:18;;;;;;;7.37;6.00;;;;;;;20.55;60.40;95667.94;5014217;28;20801;-81
2021/06/04 07:20:45;;;;;;;8.53;7.57;;;;;;;20.63;58.62;95672.41;5014340;28;20934;-80
2021/06/04 07:23:12;;;;;;;9.63;7.13;;;;;;;20.85;58.05;95676.16;4964564;28;20534;-81
2021/06/04 07:25:42;;;;;;;11.87;7.90;;;;;;;20.44;57.09;95665.63;5014348;28;20490;-80
2021/06/04 07:28:11;;;;;;;14.33;8.20;;;;;;;20.36;57.56;95673.63;4980290;28;21268;-80
2021/06/04 07:30:40;;;;;;;14.13;7.93;;;;;;;20.02;56.62;95684.53;5014127;28;20977;-80
2021/06/04 07:33:13;;;;;;;11.77;8.27;;;;;;;20.07;57.62;95674.19;5013365;28;21052;-81
2021/06/04 07:42:34;;;;;;;12.87;7.17;;;;;;;20.13;56.70;95667.34;4994604;28;20403;-80
2021/06/04 07:45:00;;;;;;;14.23;7.43;;;;;;;20.08;55.62;95670.50;4960456;28;20467;-80
2021/06/04 07:47:27;;;;;;;8.03;7.20;;;;;;;20.45;55.56;95672.63;4959279;28;20458;-81
2021/06/04 07:49:54;;;;;;;9.20;7.73;;;;;;;20.90;53.96;95657.78;4993923;28;20915;-81
2021/06/04 07:52:20;;;;;;;11.00;7.73;;;;;;;21.18;54.71;95668.78;4994209;28;20945;-81
2021/06/04 07:54:47;;;;;;;9.63;7.80;;;;;;;21.33;52.40;95667.03;4994398;28;20456;-80
2021/06/04 07:57:14;;;;;;;11.07;8.23;;;;;;;21.67;53.92;95663.94;5006494;28;20448;-80
2021/06/04 07:59:42;;;;;;;8.73;6.93;;;;;;;21.80;51.36;95663.34;5022412;28;20939;-80
2021/06/04 08:02:08;;;;;;;9.00;6.77;;;;;;;21.42;52.55;95673.19;4987102;28;20445;-80
2021/06/04 08:04:35;;;;;;;9.87;7.20;;;;;;;21.18;53.00;95668.78;5013137;28;20544;-80
2021/06/04 08:07:01;;;;;;;9.17;7.70;;;;;;;21.22;54.06;95668.25;5010834;28;21035;-81
2021/06/04 08:09:28;;;;;;;13.30;7.90;;;;;;;21.07;55.10;95669.19;5009653;28;20448;-80
2021/06/04 08:12:00;;;;;;;10.67;7.17;;;;;;;20.84;55.04;95677.16;5002417;28;20437;-81
2021/06/04 08:14:28;;;;;;;16.27;7.80;;;;;;;20.69;55.62;95674.38;4993093;28;20492;-83
2021/06/04 08:16:58;;;;;;;8.13;6.97;;;;;;;20.48;56.52;95682.94;4992383;28;20842;-81
2021/06/04 08:19:33;;;;;;;14.30;7.50;;;;;;;20.23;56.11;95684.78;4993641;28;20585;-79
2021/06/04 08:22:02;;;;;;;14.60;7.03;;;;;;;20.14;57.04;95685.81;4994759;28;20860;-82
2021/06/04 08:24:32;;;;;;;8.53;7.60;;;;;;;20.10;56.70;95687.16;4994232;28;20808;-79
2021/06/04 08:27:01;;;;;;;8.93;7.30;;;;;;;20.13;57.13;95681.50;4993718;28;20472;-79
2021/06/04 08:29:30;;;;;;;22.70;8.10;;;;;;;20.15;56.57;95682.16;4994033;28;20429;-83
2021/06/04 08:31:59;;;;;;;11.67;7.97;;;;;;;20.30;57.87;95682.31;5002320;28;20533;-81
2021/06/04 08:34:26;;;;;;;19.83;7.83;;;;;;;20.34;57.93;95681.78;5013924;28;20490;-80
2021/06/04 08:36:53;;;;;;;8.93;7.07;;;;;;;20.18;56.73;95680.97;5014100;28;20443;-80
2021/06/04 08:39:28;;;;;;;16.63;7.90;;;;;;;20.06;56.32;95677.84;5013761;28;20828;-80
2021/06/04 08:42:05;;;;;;;12.90;7.20;;;;;;;20.24;55.91;95670.50;5013506;28;20972;-80
2021/06/04 08:44:46;;;;;;;11.87;7.87;;;;;;;20.35;54.12;95670.13;5014952;28;20441;-80
2021/06/04 08:47:17;;;;;;;7.77;6.53;;;;;;;20.51;53.50;95671.09;4982729;28;21010;-80
2021/06/04 08:50:00;;;;;;;7.53;6.73;;;;;;;20.64;53.58;95674.06;5017320;28;20432;-78
2021/06/04 08:52:36;;;;;;;12.00;7.10;;;;;;;20.77;52.75;95670.81;4987449;28;20523;-79
2021/06/04 08:55:12;;;;;;;8.50;6.53;;;;;;;20.42;53.13;95670.28;5020661;28;20435;-79
2021/06/04 08:57:49;;;;;;;13.10;6.33;;;;;;;20.58;53.04;95672.91;5035086;28;20442;-81
2021/06/04 09:00:20;;;;;;;21.00;6.90;;;;;;;20.66;53.12;95672.06;5043910;28;20449;-80
2021/06/04 09:02:51;;;;;;;10.17;6.17;;;;;;;20.85;54.28;95673.47;5037180;28;20446;-83
2021/06/04 09:05:23;;;;;;;8.03;5.83;;;;;;;20.94;53.85;95667.91;5037466;28;20466;-81
2021/06/04 09:18:57;;;;;;;5.63;3.90;;;;;;;21.66;48.20;95667.63;5516737;23;20491;-85
2021/06/04 09:21:27;;;;;;;4.80;4.10;;;;;;;21.85;45.93;95669.81;5019967;28;20447;-81
2021/06/04 09:23:54;;;;;;;5.00;4.17;;;;;;;21.92;44.77;95672.59;5022916;28;20448;-84
2021/06/04 09:26:24;;;;;;;8.37;4.30;;;;;;;22.08;50.45;95668.97;5024015;28;20486;-84
2021/06/04 09:29:13;;;;;;;6.43;4.30;;;;;;;22.08;44.37;95664.47;5021088;28;20949;-83
2021/06/04 09:31:43;;;;;;;4.40;4.00;;;;;;;22.28;43.25;95663.94;5022067;28;20447;-83
2021/06/04 09:34:18;;;;;;;4.47;4.10;;;;;;;22.45;41.59;95660.06;5018373;28;20438;-83
2021/06/04 09:39:56;;;;;;;6.23;4.40;;;;;;;22.44;41.64;95650.38;4956357;29;20463;-83
2021/06/04 09:48:53;;;;;;;4.80;4.30;;;;;;;22.80;40.11;95651.28;4980900;28;20500;-84
2021/06/04 09:51:27;;;;;;;5.50;4.00;;;;;;;22.93;39.16;95644.47;4938971;29;20456;-82
2021/06/04 09:53:54;;;;;;;5.53;3.93;;;;;;;23.14;40.01;95639.16;4940377;29;20449;-83
2021/06/04 09:56:29;;;;;;;5.70;4.13;;;;;;;23.37;39.90;95642.47;4938633;29;20451;-83
2021/06/04 09:58:58;;;;;;;10.77;4.10;;;;;;;23.52;40.89;95634.38;4938831;29;20493;-83
2021/06/04 10:07:58;;;;;;;4.50;4.20;;;;;;;23.21;40.87;95633.88;4975630;23;20496;-82
2021/06/04 10:10:32;;;;;;;4.73;4.33;;;;;;;22.82;39.23;95635.06;5027004;23;20498;-84
2021/06/04 10:13:01;;;;;;;6.33;4.57;;;;;;;22.77;38.72;95629.41;4958696;29;20437;-83
2021/06/04 10:15:40;;;;;;;9.53;4.63;;;;;;;22.67;37.90;95634.22;4960127;29;20440;-83
2021/06/04 10:18:31;;;;;;;6.97;5.80;;;;;;;22.75;39.52;95626.91;4960645;28;20441;-83
2021/06/04 10:21:13;;;;;;;6.27;4.60;;;;;;;22.88;39.47;95623.63;4957152;29;20570;-83
2021/06/04 10:23:41;;;;;;;11.20;5.40;;;;;;;22.79;40.50;95625.53;4961054;29;20451;-83
2021/06/04 10:26:24;;;;;;;7.23;4.70;;;;;;;22.95;40.58;95621.00;4959210;29;20472;-83
2021/06/04 10:28:57;;;;;;;12.57;4.70;;;;;;;23.02;40.23;95627.25;4958939;29;20444;-83
2021/06/04 10:31:36;;;;;;;6.23;3.80;;;;;;;22.74;39.38;95619.91;4958809;29;20441;-83
2021/06/04 10:34:14;;;;;;;4.30;3.90;;;;;;;22.67;39.22;95619.00;4963065;29;20439;-83
2021/06/04 10:42:17;;;;;;;8.13;5.43;;;;;;;22.61;42.15;95633.13;5425658;23;20494;-82
2021/06/04 10:45:15;;;;;;;7.13;5.00;;;;;;;22.53;39.37;95622.50;4908980;29;20442;-84
2021/06/04 10:47:57;;;;;;;5.53;4.97;;;;;;;22.58;39.05;95622.81;4902007;29;20461;-82
2021/06/04 10:50:28;;;;;;;7.70;4.50;;;;;;;22.71;39.83;95625.63;4899379;29;20452;-82
2021/06/04 10:53:02;;;;;;;6.60;4.97;;;;;;;22.88;40.40;95617.44;4902139;29;20454;-82
2021/06/04 10:55:37;;;;;;;5.10;4.07;;;;;;;23.09;39.35;95620.13;4884909;29;20465;-82
2021/06/04 10:58:16;;;;;;;21.23;5.93;;;;;;;23.24;40.21;95620.09;4899914;29;20880;-83
2021/06/04 11:00:47;;;;;;;19.50;6.90;;;;;;;23.43;40.38;95614.94;4900542;29;20463;-82
2021/06/04 11:03:17;;;;;;;14.33;4.80;;;;;;;23.67;39.43;95611.03;4938690;29;20449;-82
2021/06/04 11:05:51;;;;;;;6.47;4.50;;;;;;;23.88;38.76;95609.38;4958365;28;20484;-81
2021/06/04 11:08:28;;;;;;;6.90;4.57;;;;;;;24.04;40.25;95611.75;4957497;28;20439;-82
2021/06/04 11:11:00;;;;;;;4.60;4.27;;;;;;;24.07;37.37;95604.16;4957825;28;20815;-82
2021/06/04 11:13:45;;;;;;;6.93;4.87;;;;;;;23.79;37.25;95608.69;4957078;29;20939;-82
2021/06/04 11:16:18;;;;;;;5.10;4.60;;;;;;;23.73;37.34;95604.09;4957541;29;20457;-81
2021/06/04 11:18:49;;;;;;;8.20;4.30;;;;;;;23.68;38.68;95603.84;4958575;29;20770;-82
2021/06/04 11:21:24;;;;;;;6.90;4.57;;;;;;;23.54;39.59;95604.72;4958009;29;20449;-82
2021/06/04 11:23:55;;;;;;;5.27;4.70;;;;;;;23.40;37.93;95593.88;4957786;28;20438;-81
2021/06/04 11:26:26;;;;;;;6.57;5.00;;;;;;;23.21;37.35;95593.69;4957648;29;20522;-82
2021/06/04 11:29:00;;;;;;;8.17;4.90;;;;;;;23.11;39.01;95588.63;4957874;29;20443;-83
2021/06/04 11:31:44;;;;;;;5.77;4.37;;;;;;;23.14;40.00;95581.09;4959733;28;20455;-82
2021/06/04 11:34:34;;;;;;;7.70;5.10;;;;;;;23.38;40.96;95585.19;4958738;29;20457;-83
2021/06/04 11:37:02;;;;;;;5.63;5.17;;;;;;;23.65;38.96;95580.09;4957915;29;20441;-80
2021/06/04 11:39:33;;;;;;;4.50;4.10;;;;;;;23.89;37.68;95582.34;4958966;29;20445;-81
2021/06/04 11:42:05;;;;;;;4.77;4.37;;;;;;;23.97;38.53;95582.19;4959524;29;20500;-82
2021/06/04 11:44:42;;;;;;;4.73;4.37;;;;;;;23.97;38.98;95576.84;4961577;28;20446;-82
2021/06/04 11:47:32;;;;;;;5.97;4.93;;;;;;;24.07;39.79;95579.19;4959602;29;20490;-82
2021/06/04 11:50:35;;;;;;;5.27;4.77;;;;;;;23.88;38.64;95561.09;4959495;29;20450;-81
2021/06/04 11:53:26;;;;;;;4.70;4.40;;;;;;;23.43;38.83;95561.38;4958024;29;20453;-83
2021/06/04 11:55:55;;;;;;;5.03;4.67;;;;;;;23.30;40.39;95566.59;4957848;29;21006;-82
2021/06/04 11:58:47;;;;;;;10.07;5.77;;;;;;;23.19;40.81;95572.47;4958337;29;20440;-81
2021/06/04 12:01:35;;;;;;;5.53;4.30;;;;;;;22.71;40.69;95572.13;4937843;29;20855;-82
2021/06/04 12:04:12;;;;;;;10.33;5.00;;;;;;;22.74;41.09;95577.09;4937689;29;20905;-82
2021/06/04 12:06:58;;;;;;;8.03;4.40;;;;;;;22.68;42.06;95575.19;4937215;29;20499;-83
2021/06/04 12:09:48;;;;;;;4.63;4.20;;;;;;;22.54;44.47;95566.16;4936645;29;20503;-83
2021/06/04 12:12:57;;;;;;;5.47;4.10;;;;;;;22.54;41.49;95563.47;4939743;29;20965;-83
2021/06/04 12:15:42;;;;;;;4.33;4.03;;;;;;;22.73;43.44;95570.09;4935900;29;20506;-83
2021/06/04 12:18:51;;;;;;;6.03;4.43;;;;;;;22.72;42.05;95563.06;4936815;29;20461;-83
2021/06/04 12:22:03;;;;;;;5.77;4.53;;;;;;;22.55;41.47;95564.31;4941552;29;20459;-83
2021/06/04 12:24:54;;;;;;;5.00;4.17;;;;;;;22.65;41.75;95558.69;4940931;29;20443;-81
2021/06/04 12:27:46;;;;;;;5.00;4.37;;;;;;;22.75;41.29;95560.03;4940268;29;20472;-81
2021/06/04 12:30:59;;;;;;;4.30;3.90;;;;;;;22.77;40.61;95554.47;4940903;29;20456;-83
2021/06/04 12:33:46;;;;;;;5.87;4.90;;;;;;;22.85;41.04;95560.59;4943262;29;20448;-83
2021/06/04 12:36:49;;;;;;;5.57;4.73;;;;;;;22.94;42.34;95560.47;4940134;29;20471;-83
2021/06/04 12:39:45;;;;;;;5.10;3.90;;;;;;;23.05;40.87;95547.41;4958926;29;20454;-83
2021/06/04 12:42:18;;;;;;;5.43;4.77;;;;;;;23.09;41.76;95550.53;4961036;29;20488;-83
2021/06/04 12:44:55;;;;;;;4.80;4.40;;;;;;;23.15;41.16;95547.09;4961282;29;20447;-83
2021/06/04 12:47:25;;;;;;;7.57;3.87;;;;;;;23.20;41.29;95544.66;4960995;29;20964;-83
2021/06/04 12:49:52;;;;;;;4.90;4.47;;;;;;;23.25;39.71;95542.25;4961015;29;20452;-82
2021/06/04 12:52:23;;;;;;;5.70;5.10;;;;;;;23.34;40.26;95540.25;4960819;29;20465;-83
2021/06/04 12:54:49;;;;;;;4.93;4.50;;;;;;;23.53;39.31;95539.59;4960461;29;20466;-83
2021/06/04 12:57:23;;;;;;;7.93;4.47;;;;;;;23.47;38.27;95537.69;4960807;29;20505;-83
2021/06/04 12:59:51;;;;;;;5.70;5.20;;;;;;;23.40;38.01;95534.94;4960866;29;20454;-84
2021/06/04 13:02:24;;;;;;;8.13;4.33;;;;;;;23.47;40.06;95538.53;4913045;29;20458;-83
2021/06/04 13:04:55;;;;;;;4.13;3.83;;;;;;;23.45;41.22;95537.91;4963807;29;20450;-82
2021/06/04 13:07:29;;;;;;;7.87;4.87;;;;;;;23.39;40.95;95538.63;4963840;29;20983;-82
2021/06/04 13:10:05;;;;;;;7.33;6.60;;;;;;;23.31;39.16;95529.94;4963988;29;20800;-81
2021/06/04 13:12:33;;;;;;;6.63;4.40;;;;;;;23.17;40.94;95534.34;4961936;29;20457;-83
2021/06/04 13:15:11;;;;;;;4.57;4.17;;;;;;;23.19;42.25;95543.00;4961167;29;20422;-83
2021/06/04 13:17:38;;;;;;;4.67;4.30;;;;;;;23.17;40.95;95539.69;4960900;29;20858;-82
2021/06/04 13:20:29;;;;;;;103.63;15.63;;;;;;;23.20;41.29;95539.31;4960368;29;20459;-82
2021/06/04 13:23:12;;;;;;;19.30;6.23;;;;;;;23.24;41.59;95535.22;4920188;29;20444;-83
2021/06/04 13:25:41;;;;;;;7.03;4.20;;;;;;;23.10;43.60;95546.81;4919926;29;20455;-84
2021/06/04 13:28:13;;;;;;;4.17;3.70;;;;;;;23.09;42.77;95548.66;4921007;29;20462;-83
2021/06/04 13:30:42;;;;;;;4.17;3.87;;;;;;;22.96;42.10;95548.56;4919460;29;20455;-82
2021/06/04 13:33:14;;;;;;;5.37;3.70;;;;;;;22.83;43.66;95543.88;4887360;29;20523;-82
2021/06/04 13:35:46;;;;;;;4.63;4.23;;;;;;;22.74;44.11;95552.19;4921762;29;20515;-82
2021/06/04 13:38:25;;;;;;;5.27;4.03;;;;;;;22.58;44.21;95547.91;4922055;29;20971;-82
2021/06/04 13:41:00;;;;;;;5.93;5.17;;;;;;;22.47;45.39;95551.03;4935249;29;20802;-82
2021/06/04 13:43:31;;;;;;;4.97;4.60;;;;;;;22.44;44.73;95549.56;4958194;29;20503;-82
2021/06/04 13:45:58;;;;;;;6.07;5.13;;;;;;;22.34;45.53;95553.56;4957962;29;20468;-83
2021/06/04 13:48:29;;;;;;;5.10;4.60;;;;;;;22.33;45.26;95554.59;4964171;29;20471;-79
2021/06/04 13:51:06;;;;;;;4.83;4.33;;;;;;;22.27;45.89;95547.31;4970556;29;20947;-80
2021/06/04 13:53:55;;;;;;;5.50;5.00;;;;;;;22.25;47.62;95550.13;4971400;29;20455;-82
2021/06/04 13:56:41;;;;;;;5.10;4.60;;;;;;;22.20;48.98;95556.06;4909491;29;20446;-80